Details From LPPT - Lisboa
To LPFR - Faro
Flight Number -
Tags decoded
Created
Modified
Stats Distance 124 nm / 230 km
Max Altitude 0 ft / 0 m
Waypoints 6
Social Downloads 1
Likes 0
Share VATSIM

Download

Looking for another format? Having issues loading an existing format? Contact us
Advertisement - Login to hide

Notes

Requested: LPPT ESP TROIA ODEMI VFA LPFR

Route

LPPT ESP TROIA ODEMI VFA LPFR

ID Type Via Altitude Latitude Longitude Leg Dist Tot Dist Heading (true) Name
O LPPT APT - 0 ft / 0 m 38.77856˚ -9.13515˚ - 0 nm - Lisboa
ESP VOR - 0 ft / 0 m 38.42427˚ -9.18578˚ 21 nm 21 nm 186° / 186° ESPICHEL VORTAC
TROIA FIX - 0 ft / 0 m 38.07333˚ -8.87917˚ 25 nm 46 nm 145° / 146° -
ODEMI FIX - 0 ft / 0 m 37.49750˚ -8.38389˚ 41 nm 88 nm 146° / 146° -
VFA VOR - 0 ft / 0 m 37.01352˚ -7.97501˚ 35 nm 123 nm 146° / 146° FARO VOR-DME
O LPFR APT - 0 ft / 0 m 37.01534˚ -7.97233˚ 0 nm 123 nm 50° / 50° Faro

Altitude Profile

Advertisement - Login to hide

LPPT

Details ICAO LPPT (LIS)
Name Lisboa
Region Portugal
Timezone Europe/Lisbon (UTC+1.0)
Stats Elevation 374 ft / 114 m (AMSL)
Location 38.778559° -9.135146°
Runways 2
Magnetic Variation 2.310° W

METAR

LPPT 210600Z 30003KT 270V340 9999 FEW012 12/10 Q1012

Decode

TAF

TAF LPPT 210500Z 2106/2212 VRB03KT 9999 SCT010 TEMPO 2106/2108 BKN008 BECMG 2109/2112 23010KT SCT025 BECMG 2119/2122 VRB03KT SCT015 BECMG 2203/2205 16008KT TEMPO 2203/2209 BKN015 BECMG 2209/2211 FEW030

Decode

Departure Runways

ID Width Length Bearing (true) Bearing (mag) Surface Threshold Offset Overrun Length
03 148 ft / 45 m 12,518 ft / 3,815 m 22.70° 25.01° Asphalt 296 ft / 90 m 0 ft / 0 m
17 148 ft / 45 m 7,922 ft / 2,415 m 168.38° 170.69° Asphalt 0 ft / 0 m 0 ft / 0 m
21 148 ft / 45 m 12,518 ft / 3,815 m 202.72° 205.03° Asphalt 1,969 ft / 600 m 0 ft / 0 m
35 148 ft / 45 m 7,922 ft / 2,415 m 348.38° 350.69° Asphalt 492 ft / 150 m 0 ft / 0 m

LPFR

Details ICAO LPFR (FAO)
Name Faro
Region Portugal
Timezone Europe/Lisbon (UTC+1.0)
Stats Elevation 24 ft / 7 m (AMSL)
Location 37.015336° -7.972327°
Runways 1
Magnetic Variation 1.884° W

METAR

LPFR 210600Z 03003KT CAVOK 14/13 Q1011

Decode

TAF

TAF LPFR 210500Z 2106/2206 VRB03KT 9999 FEW018 PROB30 TEMPO 2106/2108 5000 BR BKN005 BECMG 2108/2110 BKN015 BECMG 2110/2112 23010KT SCT020 BECMG 2114/2116 26015KT CAVOK BECMG 2120/2122 29010KT BECMG 2201/2203 34005KT

Decode

Destination Runways

ID Width Length Bearing (true) Bearing (mag) Surface Threshold Offset Overrun Length
10 148 ft / 45 m 8,148 ft / 2,484 m 100.08° 101.96° Asphalt 148 ft / 45 m 0 ft / 0 m
28 148 ft / 45 m 8,148 ft / 2,484 m 280.10° 281.98° Asphalt 148 ft / 45 m 0 ft / 0 m

Approach Navaids

Runway Type Ident Frequency Range Bearing (true) Bearing (mag) Slope Elevation
28 Localiser IIF 109.50 MHz 18 nm / 33 km 280.16° 282.05° - 24 ft / 7 m (AMSL)
28 Glidescope IIF 109.50 MHz 10 nm / 19 km 280.09° 281.97° 3.00° 24 ft / 7 m (AMSL)
28 DME IIF 109.50 MHz 18 nm / 33 km - - - 24 ft / 7 m (AMSL)

Popular Alternatives